sensor_id;sensor_type;location;lat;lon;timestamp;P1;durP1;ratioP1;P2;durP2;ratioP2
20794;SDS011;28087;-33.874;151.240;2023-06-01T00:01:51;8.00;;;2.35;;
20794;SDS011;28087;-33.874;151.240;2023-06-01T00:04:26;6.57;;;2.60;;
20794;SDS011;28087;-33.874;151.240;2023-06-01T00:07:00;6.55;;;2.10;;
20794;SDS011;28087;-33.874;151.240;2023-06-01T00:09:36;4.78;;;1.90;;
20794;SDS011;28087;-33.874;151.240;2023-06-01T00:12:12;4.57;;;1.60;;
20794;SDS011;28087;-33.874;151.240;2023-06-01T00:14:47;4.03;;;1.73;;
20794;SDS011;28087;-33.874;151.240;2023-06-01T00:17:21;3.58;;;1.60;;
20794;SDS011;28087;-33.874;151.240;2023-06-01T00:19:56;4.38;;;1.80;;
20794;SDS011;28087;-33.874;151.240;2023-06-01T00:22:32;5.60;;;1.80;;
20794;SDS011;28087;-33.874;151.240;2023-06-01T00:25:09;6.18;;;1.80;;
20794;SDS011;28087;-33.874;151.240;2023-06-01T00:27:45;6.45;;;1.90;;
20794;SDS011;28087;-33.874;151.240;2023-06-01T00:30:20;6.00;;;1.63;;
20794;SDS011;28087;-33.874;151.240;2023-06-01T00:32:55;4.07;;;1.65;;
20794;SDS011;28087;-33.874;151.240;2023-06-01T00:35:30;5.28;;;1.65;;
20794;SDS011;28087;-33.874;151.240;2023-06-01T00:38:04;5.85;;;1.80;;
20794;SDS011;28087;-33.874;151.240;2023-06-01T00:40:39;5.45;;;1.80;;
20794;SDS011;28087;-33.874;151.240;2023-06-01T00:43:16;4.40;;;1.90;;
20794;SDS011;28087;-33.874;151.240;2023-06-01T00:45:51;5.10;;;1.60;;
20794;SDS011;28087;-33.874;151.240;2023-06-01T00:48:31;5.50;;;1.63;;
20794;SDS011;28087;-33.874;151.240;2023-06-01T00:51:10;6.15;;;2.10;;
20794;SDS011;28087;-33.874;151.240;2023-06-01T00:53:46;6.13;;;1.70;;
20794;SDS011;28087;-33.874;151.240;2023-06-01T00:56:27;5.18;;;1.85;;
20794;SDS011;28087;-33.874;151.240;2023-06-01T00:59:05;3.42;;;1.60;;
20794;SDS011;28087;-33.874;151.240;2023-06-01T01:01:45;6.35;;;1.90;;
20794;SDS011;28087;-33.874;151.240;2023-06-01T01:04:30;6.35;;;2.00;;
20794;SDS011;28087;-33.874;151.240;2023-06-01T01:07:06;5.22;;;1.80;;
20794;SDS011;28087;-33.874;151.240;2023-06-01T01:09:46;5.15;;;1.63;;
20794;SDS011;28087;-33.874;151.240;2023-06-01T01:12:26;5.55;;;1.80;;
20794;SDS011;28087;-33.874;151.240;2023-06-01T01:15:07;6.20;;;2.10;;
20794;SDS011;28087;-33.874;151.240;2023-06-01T01:17:42;6.50;;;1.85;;
20794;SDS011;28087;-33.874;151.240;2023-06-01T01:20:21;6.85;;;1.90;;
20794;SDS011;28087;-33.874;151.240;2023-06-01T01:23:05;6.90;;;2.30;;
20794;SDS011;28087;-33.874;151.240;2023-06-01T01:25:50;6.25;;;1.92;;
20794;SDS011;28087;-33.874;151.240;2023-06-01T01:28:35;4.25;;;1.83;;
20794;SDS011;28087;-33.874;151.240;2023-06-01T01:31:12;7.75;;;2.10;;
20794;SDS011;28087;-33.874;151.240;2023-06-01T01:33:48;5.30;;;2.00;;
20794;SDS011;28087;-33.874;151.240;2023-06-01T01:36:24;5.28;;;2.30;;
20794;SDS011;28087;-33.874;151.240;2023-06-01T01:38:59;6.03;;;1.98;;
20794;SDS011;28087;-33.874;151.240;2023-06-01T01:41:34;4.80;;;1.90;;
20794;SDS011;28087;-33.874;151.240;2023-06-01T01:44:11;4.20;;;1.90;;
20794;SDS011;28087;-33.874;151.240;2023-06-01T01:46:49;3.97;;;2.08;;
20794;SDS011;28087;-33.874;151.240;2023-06-01T01:49:26;4.68;;;1.98;;
20794;SDS011;28087;-33.874;151.240;2023-06-01T01:52:03;4.68;;;2.00;;
20794;SDS011;28087;-33.874;151.240;2023-06-01T01:54:41;4.20;;;2.00;;
20794;SDS011;28087;-33.874;151.240;2023-06-01T01:57:18;5.30;;;1.92;;
20794;SDS011;28087;-33.874;151.240;2023-06-01T01:59:56;3.58;;;1.73;;
20794;SDS011;28087;-33.874;151.240;2023-06-01T02:02:44;3.95;;;1.70;;
20794;SDS011;28087;-33.874;151.240;2023-06-01T02:05:20;4.50;;;1.92;;
20794;SDS011;28087;-33.874;151.240;2023-06-01T02:07:55;3.25;;;1.70;;
20794;SDS011;28087;-33.874;151.240;2023-06-01T02:10:30;4.43;;;1.70;;
20794;SDS011;28087;-33.874;151.240;2023-06-01T02:13:04;4.40;;;1.80;;
20794;SDS011;28087;-33.874;151.240;2023-06-01T02:15:42;3.85;;;1.83;;
20794;SDS011;28087;-33.874;151.240;2023-06-01T02:18:16;4.65;;;2.20;;
20794;SDS011;28087;-33.874;151.240;2023-06-01T02:20:51;4.22;;;1.80;;
20794;SDS011;28087;-33.874;151.240;2023-06-01T02:23:25;5.90;;;2.17;;
20794;SDS011;28087;-33.874;151.240;2023-06-01T02:26:01;4.40;;;1.85;;
20794;SDS011;28087;-33.874;151.240;2023-06-01T02:28:36;4.32;;;1.80;;
20794;SDS011;28087;-33.874;151.240;2023-06-01T02:31:13;5.72;;;2.50;;
20794;SDS011;28087;-33.874;151.240;2023-06-01T02:33:48;4.28;;;1.98;;
20794;SDS011;28087;-33.874;151.240;2023-06-01T02:36:24;4.13;;;1.60;;
20794;SDS011;28087;-33.874;151.240;2023-06-01T02:38:59;4.70;;;1.70;;
20794;SDS011;28087;-33.874;151.240;2023-06-01T02:41:34;5.20;;;1.92;;
20794;SDS011;28087;-33.874;151.240;2023-06-01T02:44:09;5.80;;;1.88;;
20794;SDS011;28087;-33.874;151.240;2023-06-01T02:46:46;6.63;;;1.80;;
20794;SDS011;28087;-33.874;151.240;2023-06-01T02:49:21;4.22;;;1.60;;
20794;SDS011;28087;-33.874;151.240;2023-06-01T02:51:55;2.80;;;1.50;;
20794;SDS011;28087;-33.874;151.240;2023-06-01T02:54:30;4.68;;;1.60;;
20794;SDS011;28087;-33.874;151.240;2023-06-01T02:57:22;4.20;;;1.23;;
20794;SDS011;28087;-33.874;151.240;2023-06-01T03:00:03;4.43;;;1.45;;
20794;SDS011;28087;-33.874;151.240;2023-06-01T03:02:50;4.50;;;1.50;;
20794;SDS011;28087;-33.874;151.240;2023-06-01T03:05:27;4.88;;;1.38;;
20794;SDS011;28087;-33.874;151.240;2023-06-01T03:08:42;3.67;;;1.40;;
20794;SDS011;28087;-33.874;151.240;2023-06-01T03:11:43;3.28;;;1.40;;
20794;SDS011;28087;-33.874;151.240;2023-06-01T03:14:26;3.08;;;1.40;;
20794;SDS011;28087;-33.874;151.240;2023-06-01T03:17:02;4.13;;;1.33;;
20794;SDS011;28087;-33.874;151.240;2023-06-01T03:19:51;5.95;;;1.45;;
20794;SDS011;28087;-33.874;151.240;2023-06-01T03:22:34;3.55;;;1.40;;
20794;SDS011;28087;-33.874;151.240;2023-06-01T03:25:41;3.28;;;1.35;;
20794;SDS011;28087;-33.874;151.240;2023-06-01T03:28:37;3.25;;;1.20;;
20794;SDS011;28087;-33.874;151.240;2023-06-01T03:31:15;3.00;;;1.30;;
20794;SDS011;28087;-33.874;151.240;2023-06-01T03:33:50;1.88;;;1.10;;
20794;SDS011;28087;-33.874;151.240;2023-06-01T03:36:27;5.13;;;1.33;;
20794;SDS011;28087;-33.874;151.240;2023-06-01T03:39:02;3.92;;;1.38;;
20794;SDS011;28087;-33.874;151.240;2023-06-01T03:41:40;4.32;;;1.30;;
20794;SDS011;28087;-33.874;151.240;2023-06-01T03:44:16;4.50;;;1.20;;
20794;SDS011;28087;-33.874;151.240;2023-06-01T03:46:51;8.15;;;2.30;;
20794;SDS011;28087;-33.874;151.240;2023-06-01T03:49:29;5.70;;;2.63;;
20794;SDS011;28087;-33.874;151.240;2023-06-01T03:52:13;5.50;;;3.00;;
20794;SDS011;28087;-33.874;151.240;2023-06-01T03:54:49;9.27;;;3.90;;
20794;SDS011;28087;-33.874;151.240;2023-06-01T03:57:44;6.72;;;3.75;;
20794;SDS011;28087;-33.874;151.240;2023-06-01T04:00:19;8.15;;;3.90;;
20794;SDS011;28087;-33.874;151.240;2023-06-01T04:02:57;6.82;;;3.92;;
20794;SDS011;28087;-33.874;151.240;2023-06-01T04:05:35;7.05;;;3.83;;
20794;SDS011;28087;-33.874;151.240;2023-06-01T04:08:11;8.15;;;4.60;;
20794;SDS011;28087;-33.874;151.240;2023-06-01T04:10:49;6.72;;;4.22;;
20794;SDS011;28087;-33.874;151.240;2023-06-01T04:13:25;6.65;;;4.10;;
20794;SDS011;28087;-33.874;151.240;2023-06-01T04:16:02;7.60;;;4.35;;
20794;SDS011;28087;-33.874;151.240;2023-06-01T04:18:37;7.05;;;4.28;;
20794;SDS011;28087;-33.874;151.240;2023-06-01T04:21:30;8.43;;;4.13;;
20794;SDS011;28087;-33.874;151.240;2023-06-01T04:24:07;7.93;;;4.25;;
20794;SDS011;28087;-33.874;151.240;2023-06-01T04:26:42;8.38;;;4.50;;
20794;SDS011;28087;-33.874;151.240;2023-06-01T04:29:17;8.25;;;4.70;;
20794;SDS011;28087;-33.874;151.240;2023-06-01T04:31:52;6.13;;;3.80;;
20794;SDS011;28087;-33.874;151.240;2023-06-01T04:34:28;6.00;;;3.28;;
20794;SDS011;28087;-33.874;151.240;2023-06-01T04:37:04;5.95;;;3.30;;
20794;SDS011;28087;-33.874;151.240;2023-06-01T04:39:41;5.07;;;3.10;;
20794;SDS011;28087;-33.874;151.240;2023-06-01T04:42:23;7.80;;;3.13;;
20794;SDS011;28087;-33.874;151.240;2023-06-01T04:45:00;5.60;;;3.03;;
20794;SDS011;28087;-33.874;151.240;2023-06-01T04:47:38;6.28;;;3.20;;
20794;SDS011;28087;-33.874;151.240;2023-06-01T04:50:22;6.55;;;3.38;;
20794;SDS011;28087;-33.874;151.240;2023-06-01T04:53:00;5.28;;;3.33;;
20794;SDS011;28087;-33.874;151.240;2023-06-01T04:55:43;7.18;;;3.72;;
20794;SDS011;28087;-33.874;151.240;2023-06-01T04:58:19;5.68;;;3.47;;
20794;SDS011;28087;-33.874;151.240;2023-06-01T05:00:54;5.82;;;3.80;;
20794;SDS011;28087;-33.874;151.240;2023-06-01T05:03:31;6.18;;;3.60;;
20794;SDS011;28087;-33.874;151.240;2023-06-01T05:06:16;6.50;;;3.47;;
20794;SDS011;28087;-33.874;151.240;2023-06-01T05:08:51;6.32;;;3.85;;
20794;SDS011;28087;-33.874;151.240;2023-06-01T05:11:32;6.57;;;4.30;;
20794;SDS011;28087;-33.874;151.240;2023-06-01T05:14:08;7.68;;;4.45;;
20794;SDS011;28087;-33.874;151.240;2023-06-01T05:16:46;8.15;;;4.35;;
20794;SDS011;28087;-33.874;151.240;2023-06-01T05:19:21;7.30;;;4.40;;
20794;SDS011;28087;-33.874;151.240;2023-06-01T05:21:56;6.78;;;4.63;;
20794;SDS011;28087;-33.874;151.240;2023-06-01T05:24:31;7.47;;;5.15;;
20794;SDS011;28087;-33.874;151.240;2023-06-01T05:27:09;7.70;;;5.45;;
20794;SDS011;28087;-33.874;151.240;2023-06-01T05:29:44;9.48;;;6.50;;
20794;SDS011;28087;-33.874;151.240;2023-06-01T05:32:18;10.43;;;6.57;;
20794;SDS011;28087;-33.874;151.240;2023-06-01T05:34:56;9.88;;;6.68;;
20794;SDS011;28087;-33.874;151.240;2023-06-01T05:37:32;9.60;;;6.80;;
20794;SDS011;28087;-33.874;151.240;2023-06-01T05:40:09;8.95;;;6.68;;
20794;SDS011;28087;-33.874;151.240;2023-06-01T05:42:46;9.70;;;6.35;;
20794;SDS011;28087;-33.874;151.240;2023-06-01T05:45:23;9.43;;;6.30;;
20794;SDS011;28087;-33.874;151.240;2023-06-01T05:48:09;9.15;;;6.25;;
20794;SDS011;28087;-33.874;151.240;2023-06-01T05:50:52;8.95;;;6.25;;
20794;SDS011;28087;-33.874;151.240;2023-06-01T05:53:27;9.52;;;5.97;;
20794;SDS011;28087;-33.874;151.240;2023-06-01T05:56:04;8.75;;;5.93;;
20794;SDS011;28087;-33.874;151.240;2023-06-01T05:58:44;9.90;;;6.20;;
20794;SDS011;28087;-33.874;151.240;2023-06-01T06:01:23;7.50;;;5.53;;
20794;SDS011;28087;-33.874;151.240;2023-06-01T06:03:58;9.52;;;6.03;;
20794;SDS011;28087;-33.874;151.240;2023-06-01T06:06:39;8.45;;;6.30;;
20794;SDS011;28087;-33.874;151.240;2023-06-01T06:09:14;8.55;;;5.90;;
20794;SDS011;28087;-33.874;151.240;2023-06-01T06:11:54;9.85;;;6.15;;
20794;SDS011;28087;-33.874;151.240;2023-06-01T06:14:32;9.13;;;5.93;;
20794;SDS011;28087;-33.874;151.240;2023-06-01T06:17:10;10.70;;;6.43;;
20794;SDS011;28087;-33.874;151.240;2023-06-01T06:19:51;8.05;;;5.57;;
20794;SDS011;28087;-33.874;151.240;2023-06-01T06:22:29;8.30;;;5.50;;
20794;SDS011;28087;-33.874;151.240;2023-06-01T06:25:04;8.88;;;5.45;;
20794;SDS011;28087;-33.874;151.240;2023-06-01T06:27:40;9.63;;;5.70;;
20794;SDS011;28087;-33.874;151.240;2023-06-01T06:30:18;8.35;;;5.25;;
20794;SDS011;28087;-33.874;151.240;2023-06-01T06:32:56;8.65;;;4.82;;
20794;SDS011;28087;-33.874;151.240;2023-06-01T06:35:31;6.30;;;4.03;;
20794;SDS011;28087;-33.874;151.240;2023-06-01T06:38:11;5.93;;;3.80;;
20794;SDS011;28087;-33.874;151.240;2023-06-01T06:40:47;8.48;;;4.00;;
20794;SDS011;28087;-33.874;151.240;2023-06-01T06:43:24;7.85;;;4.47;;
20794;SDS011;28087;-33.874;151.240;2023-06-01T06:46:01;8.95;;;4.45;;
20794;SDS011;28087;-33.874;151.240;2023-06-01T06:48:37;9.98;;;4.72;;
20794;SDS011;28087;-33.874;151.240;2023-06-01T06:51:12;11.20;;;4.75;;
20794;SDS011;28087;-33.874;151.240;2023-06-01T06:53:46;7.20;;;4.00;;
20794;SDS011;28087;-33.874;151.240;2023-06-01T06:56:23;9.68;;;4.50;;
20794;SDS011;28087;-33.874;151.240;2023-06-01T06:58:59;7.13;;;4.30;;
20794;SDS011;28087;-33.874;151.240;2023-06-01T07:01:38;10.63;;;5.10;;
20794;SDS011;28087;-33.874;151.240;2023-06-01T07:04:14;8.80;;;5.15;;
20794;SDS011;28087;-33.874;151.240;2023-06-01T07:06:51;11.95;;;4.70;;
20794;SDS011;28087;-33.874;151.240;2023-06-01T07:09:26;9.02;;;4.00;;
20794;SDS011;28087;-33.874;151.240;2023-06-01T07:12:01;9.82;;;4.13;;
20794;SDS011;28087;-33.874;151.240;2023-06-01T07:14:36;12.23;;;4.63;;
20794;SDS011;28087;-33.874;151.240;2023-06-01T07:17:12;9.25;;;4.13;;
20794;SDS011;28087;-33.874;151.240;2023-06-01T07:19:47;10.00;;;4.15;;
20794;SDS011;28087;-33.874;151.240;2023-06-01T07:22:23;8.95;;;4.00;;
20794;SDS011;28087;-33.874;151.240;2023-06-01T07:24:57;9.77;;;3.88;;
20794;SDS011;28087;-33.874;151.240;2023-06-01T07:27:31;7.93;;;3.40;;
20794;SDS011;28087;-33.874;151.240;2023-06-01T07:30:07;10.30;;;4.20;;
20794;SDS011;28087;-33.874;151.240;2023-06-01T07:32:44;7.18;;;4.28;;
20794;SDS011;28087;-33.874;151.240;2023-06-01T07:35:19;7.60;;;3.83;;
20794;SDS011;28087;-33.874;151.240;2023-06-01T07:37:53;7.53;;;4.03;;
20794;SDS011;28087;-33.874;151.240;2023-06-01T07:40:29;8.82;;;4.20;;
20794;SDS011;28087;-33.874;151.240;2023-06-01T07:43:04;8.27;;;3.70;;
20794;SDS011;28087;-33.874;151.240;2023-06-01T07:45:39;6.93;;;3.63;;
20794;SDS011;28087;-33.874;151.240;2023-06-01T07:48:15;7.90;;;3.42;;
20794;SDS011;28087;-33.874;151.240;2023-06-01T07:50:50;8.75;;;3.05;;
20794;SDS011;28087;-33.874;151.240;2023-06-01T07:53:25;9.60;;;3.22;;
20794;SDS011;28087;-33.874;151.240;2023-06-01T07:56:00;6.93;;;3.45;;
20794;SDS011;28087;-33.874;151.240;2023-06-01T07:58:35;8.38;;;4.20;;
20794;SDS011;28087;-33.874;151.240;2023-06-01T08:01:09;9.20;;;3.95;;
20794;SDS011;28087;-33.874;151.240;2023-06-01T08:03:47;8.65;;;4.28;;
20794;SDS011;28087;-33.874;151.240;2023-06-01T08:06:23;7.55;;;4.10;;
20794;SDS011;28087;-33.874;151.240;2023-06-01T08:08:59;8.25;;;3.85;;
20794;SDS011;28087;-33.874;151.240;2023-06-01T08:11:35;7.43;;;3.90;;
20794;SDS011;28087;-33.874;151.240;2023-06-01T08:14:10;6.88;;;4.00;;
20794;SDS011;28087;-33.874;151.240;2023-06-01T08:16:47;7.30;;;3.95;;
20794;SDS011;28087;-33.874;151.240;2023-06-01T08:19:25;7.15;;;4.05;;
20794;SDS011;28087;-33.874;151.240;2023-06-01T08:22:02;12.80;;;7.65;;
20794;SDS011;28087;-33.874;151.240;2023-06-01T08:24:38;13.85;;;7.68;;
20794;SDS011;28087;-33.874;151.240;2023-06-01T08:27:19;14.85;;;9.35;;
20794;SDS011;28087;-33.874;151.240;2023-06-01T08:29:54;12.02;;;8.30;;
20794;SDS011;28087;-33.874;151.240;2023-06-01T08:32:29;10.05;;;5.60;;
20794;SDS011;28087;-33.874;151.240;2023-06-01T08:35:07;8.70;;;4.10;;
20794;SDS011;28087;-33.874;151.240;2023-06-01T08:37:42;8.43;;;4.00;;
20794;SDS011;28087;-33.874;151.240;2023-06-01T08:40:20;8.50;;;3.80;;
20794;SDS011;28087;-33.874;151.240;2023-06-01T08:43:04;9.10;;;3.75;;
20794;SDS011;28087;-33.874;151.240;2023-06-01T08:45:43;8.63;;;3.50;;
20794;SDS011;28087;-33.874;151.240;2023-06-01T08:48:18;9.95;;;3.72;;
20794;SDS011;28087;-33.874;151.240;2023-06-01T08:50:55;7.20;;;3.63;;
20794;SDS011;28087;-33.874;151.240;2023-06-01T08:53:30;8.25;;;3.63;;
20794;SDS011;28087;-33.874;151.240;2023-06-01T08:56:06;6.63;;;3.60;;
20794;SDS011;28087;-33.874;151.240;2023-06-01T08:58:40;8.73;;;3.75;;
20794;SDS011;28087;-33.874;151.240;2023-06-01T09:01:16;6.35;;;3.40;;
20794;SDS011;28087;-33.874;151.240;2023-06-01T09:03:52;8.45;;;3.58;;
20794;SDS011;28087;-33.874;151.240;2023-06-01T09:06:29;6.75;;;3.67;;
20794;SDS011;28087;-33.874;151.240;2023-06-01T09:09:04;6.82;;;3.80;;
20794;SDS011;28087;-33.874;151.240;2023-06-01T09:11:42;9.43;;;4.60;;
20794;SDS011;28087;-33.874;151.240;2023-06-01T09:14:20;8.90;;;4.30;;
20794;SDS011;28087;-33.874;151.240;2023-06-01T09:16:56;8.80;;;4.43;;
20794;SDS011;28087;-33.874;151.240;2023-06-01T09:19:40;11.45;;;5.32;;
20794;SDS011;28087;-33.874;151.240;2023-06-01T09:22:17;9.52;;;4.97;;
20794;SDS011;28087;-33.874;151.240;2023-06-01T09:24:55;8.38;;;4.40;;
20794;SDS011;28087;-33.874;151.240;2023-06-01T09:27:34;8.48;;;4.60;;
20794;SDS011;28087;-33.874;151.240;2023-06-01T09:30:16;8.90;;;4.80;;
20794;SDS011;28087;-33.874;151.240;2023-06-01T09:32:51;7.45;;;4.68;;
20794;SDS011;28087;-33.874;151.240;2023-06-01T09:35:41;11.63;;;5.90;;
20794;SDS011;28087;-33.874;151.240;2023-06-01T09:38:22;11.07;;;6.20;;
20794;SDS011;28087;-33.874;151.240;2023-06-01T09:40:58;15.00;;;6.40;;
20794;SDS011;28087;-33.874;151.240;2023-06-01T09:43:33;11.60;;;6.20;;
20794;SDS011;28087;-33.874;151.240;2023-06-01T09:46:10;9.68;;;5.75;;
20794;SDS011;28087;-33.874;151.240;2023-06-01T09:48:46;9.50;;;5.25;;
20794;SDS011;28087;-33.874;151.240;2023-06-01T09:51:21;9.27;;;5.00;;
20794;SDS011;28087;-33.874;151.240;2023-06-01T09:54:02;9.50;;;5.00;;
20794;SDS011;28087;-33.874;151.240;2023-06-01T09:56:46;10.35;;;4.80;;
20794;SDS011;28087;-33.874;151.240;2023-06-01T09:59:38;9.35;;;4.40;;
20794;SDS011;28087;-33.874;151.240;2023-06-01T10:02:13;10.55;;;4.57;;
20794;SDS011;28087;-33.874;151.240;2023-06-01T10:04:52;11.23;;;4.40;;
20794;SDS011;28087;-33.874;151.240;2023-06-01T10:07:31;9.02;;;3.80;;
20794;SDS011;28087;-33.874;151.240;2023-06-01T10:10:12;11.88;;;4.35;;
20794;SDS011;28087;-33.874;151.240;2023-06-01T10:12:50;10.43;;;4.15;;
20794;SDS011;28087;-33.874;151.240;2023-06-01T10:15:26;12.45;;;4.22;;
20794;SDS011;28087;-33.874;151.240;2023-06-01T10:18:02;12.90;;;3.65;;
20794;SDS011;28087;-33.874;151.240;2023-06-01T10:20:41;14.23;;;3.90;;
20794;SDS011;28087;-33.874;151.240;2023-06-01T10:23:15;12.65;;;4.50;;
20794;SDS011;28087;-33.874;151.240;2023-06-01T10:26:05;16.42;;;3.85;;
20794;SDS011;28087;-33.874;151.240;2023-06-01T10:28:41;15.55;;;4.35;;
20794;SDS011;28087;-33.874;151.240;2023-06-01T10:31:37;12.65;;;4.00;;
20794;SDS011;28087;-33.874;151.240;2023-06-01T10:34:12;17.95;;;4.50;;
20794;SDS011;28087;-33.874;151.240;2023-06-01T10:39:40;13.50;;;3.88;;
20794;SDS011;28087;-33.874;151.240;2023-06-01T10:45:10;17.10;;;4.28;;
20794;SDS011;28087;-33.874;151.240;2023-06-01T10:48:04;18.92;;;4.20;;
20794;SDS011;28087;-33.874;151.240;2023-06-01T10:53:42;13.27;;;3.50;;
20794;SDS011;28087;-33.874;151.240;2023-06-01T10:56:20;20.67;;;4.57;;
20794;SDS011;28087;-33.874;151.240;2023-06-01T10:59:11;26.60;;;4.68;;
20794;SDS011;28087;-33.874;151.240;2023-06-01T11:01:50;24.38;;;5.45;;
20794;SDS011;28087;-33.874;151.240;2023-06-01T11:04:34;16.90;;;4.30;;
20794;SDS011;28087;-33.874;151.240;2023-06-01T11:10:02;15.45;;;3.70;;
20794;SDS011;28087;-33.874;151.240;2023-06-01T11:15:35;22.65;;;4.30;;
20794;SDS011;28087;-33.874;151.240;2023-06-01T11:21:05;24.17;;;4.25;;
20794;SDS011;28087;-33.874;151.240;2023-06-01T11:23:40;20.85;;;4.45;;
20794;SDS011;28087;-33.874;151.240;2023-06-01T11:26:16;21.55;;;4.40;;
20794;SDS011;28087;-33.874;151.240;2023-06-01T11:28:52;20.42;;;4.18;;
20794;SDS011;28087;-33.874;151.240;2023-06-01T11:31:30;26.70;;;4.82;;
20794;SDS011;28087;-33.874;151.240;2023-06-01T11:34:10;19.33;;;4.00;;
20794;SDS011;28087;-33.874;151.240;2023-06-01T11:36:48;21.48;;;4.97;;
20794;SDS011;28087;-33.874;151.240;2023-06-01T11:39:24;20.00;;;4.30;;
20794;SDS011;28087;-33.874;151.240;2023-06-01T11:42:06;20.58;;;4.53;;
20794;SDS011;28087;-33.874;151.240;2023-06-01T11:44:42;22.60;;;4.45;;
20794;SDS011;28087;-33.874;151.240;2023-06-01T11:47:17;21.27;;;4.40;;
20794;SDS011;28087;-33.874;151.240;2023-06-01T11:49:52;22.70;;;4.50;;
20794;SDS011;28087;-33.874;151.240;2023-06-01T11:52:29;29.17;;;5.18;;
20794;SDS011;28087;-33.874;151.240;2023-06-01T11:55:04;28.23;;;4.88;;
20794;SDS011;28087;-33.874;151.240;2023-06-01T11:57:40;26.10;;;5.03;;
20794;SDS011;28087;-33.874;151.240;2023-06-01T12:00:15;29.85;;;5.22;;
20794;SDS011;28087;-33.874;151.240;2023-06-01T12:02:56;32.58;;;5.57;;
20794;SDS011;28087;-33.874;151.240;2023-06-01T12:05:40;29.27;;;5.25;;
20794;SDS011;28087;-33.874;151.240;2023-06-01T12:08:19;32.78;;;5.57;;
20794;SDS011;28087;-33.874;151.240;2023-06-01T12:10:54;19.63;;;4.70;;
20794;SDS011;28087;-33.874;151.240;2023-06-01T12:13:29;25.75;;;4.43;;
20794;SDS011;28087;-33.874;151.240;2023-06-01T12:16:05;24.52;;;5.10;;
20794;SDS011;28087;-33.874;151.240;2023-06-01T12:18:50;25.23;;;4.75;;
20794;SDS011;28087;-33.874;151.240;2023-06-01T12:21:25;24.75;;;4.88;;
20794;SDS011;28087;-33.874;151.240;2023-06-01T12:24:02;27.52;;;5.07;;
20794;SDS011;28087;-33.874;151.240;2023-06-01T12:26:37;29.88;;;4.97;;
20794;SDS011;28087;-33.874;151.240;2023-06-01T12:29:13;25.67;;;4.97;;
20794;SDS011;28087;-33.874;151.240;2023-06-01T12:31:57;20.92;;;4.40;;
20794;SDS011;28087;-33.874;151.240;2023-06-01T12:34:31;30.02;;;5.20;;
20794;SDS011;28087;-33.874;151.240;2023-06-01T12:37:16;33.85;;;5.35;;
20794;SDS011;28087;-33.874;151.240;2023-06-01T12:39:53;26.08;;;5.22;;
20794;SDS011;28087;-33.874;151.240;2023-06-01T12:42:35;19.35;;;4.00;;
20794;SDS011;28087;-33.874;151.240;2023-06-01T12:45:10;25.60;;;4.65;;
20794;SDS011;28087;-33.874;151.240;2023-06-01T12:47:44;24.02;;;4.80;;
20794;SDS011;28087;-33.874;151.240;2023-06-01T12:50:19;24.52;;;5.05;;
20794;SDS011;28087;-33.874;151.240;2023-06-01T12:52:54;29.30;;;5.10;;
20794;SDS011;28087;-33.874;151.240;2023-06-01T12:55:31;20.88;;;4.15;;
20794;SDS011;28087;-33.874;151.240;2023-06-01T12:58:08;24.92;;;4.78;;
20794;SDS011;28087;-33.874;151.240;2023-06-01T13:00:43;25.17;;;4.40;;
20794;SDS011;28087;-33.874;151.240;2023-06-01T13:03:38;19.60;;;4.43;;
20794;SDS011;28087;-33.874;151.240;2023-06-01T13:06:13;30.90;;;4.47;;
20794;SDS011;28087;-33.874;151.240;2023-06-01T13:08:50;21.95;;;3.97;;
20794;SDS011;28087;-33.874;151.240;2023-06-01T13:11:28;23.23;;;4.25;;
20794;SDS011;28087;-33.874;151.240;2023-06-01T13:14:03;26.70;;;4.38;;
20794;SDS011;28087;-33.874;151.240;2023-06-01T13:16:38;26.85;;;4.85;;
20794;SDS011;28087;-33.874;151.240;2023-06-01T13:19:14;18.83;;;3.88;;
20794;SDS011;28087;-33.874;151.240;2023-06-01T13:21:50;20.55;;;3.83;;
20794;SDS011;28087;-33.874;151.240;2023-06-01T13:24:26;26.75;;;5.00;;
20794;SDS011;28087;-33.874;151.240;2023-06-01T13:27:23;21.60;;;4.90;;
20794;SDS011;28087;-33.874;151.240;2023-06-01T13:29:58;20.23;;;4.18;;
20794;SDS011;28087;-33.874;151.240;2023-06-01T13:32:35;23.33;;;4.75;;
20794;SDS011;28087;-33.874;151.240;2023-06-01T13:35:09;18.95;;;3.80;;
20794;SDS011;28087;-33.874;151.240;2023-06-01T13:37:45;19.48;;;4.10;;
20794;SDS011;28087;-33.874;151.240;2023-06-01T13:40:21;19.10;;;3.80;;
20794;SDS011;28087;-33.874;151.240;2023-06-01T13:42:59;21.45;;;4.00;;
20794;SDS011;28087;-33.874;151.240;2023-06-01T13:45:34;18.10;;;3.90;;
20794;SDS011;28087;-33.874;151.240;2023-06-01T13:48:09;22.30;;;4.00;;
20794;SDS011;28087;-33.874;151.240;2023-06-01T13:50:49;15.55;;;3.50;;
20794;SDS011;28087;-33.874;151.240;2023-06-01T13:53:26;14.75;;;3.40;;
20794;SDS011;28087;-33.874;151.240;2023-06-01T13:56:04;21.75;;;3.85;;
20794;SDS011;28087;-33.874;151.240;2023-06-01T13:58:47;15.63;;;3.58;;
20794;SDS011;28087;-33.874;151.240;2023-06-01T14:01:23;21.25;;;4.32;;
20794;SDS011;28087;-33.874;151.240;2023-06-01T14:04:00;17.60;;;3.53;;
20794;SDS011;28087;-33.874;151.240;2023-06-01T14:06:35;17.98;;;3.67;;
20794;SDS011;28087;-33.874;151.240;2023-06-01T14:09:10;23.33;;;3.97;;
20794;SDS011;28087;-33.874;151.240;2023-06-01T14:11:45;22.17;;;4.53;;
20794;SDS011;28087;-33.874;151.240;2023-06-01T14:14:22;18.10;;;3.78;;
20794;SDS011;28087;-33.874;151.240;2023-06-01T14:16:58;21.58;;;3.95;;
20794;SDS011;28087;-33.874;151.240;2023-06-01T14:19:34;19.65;;;4.10;;
20794;SDS011;28087;-33.874;151.240;2023-06-01T14:22:10;19.20;;;4.10;;
20794;SDS011;28087;-33.874;151.240;2023-06-01T14:24:46;26.73;;;4.57;;
20794;SDS011;28087;-33.874;151.240;2023-06-01T14:27:21;21.88;;;4.10;;
20794;SDS011;28087;-33.874;151.240;2023-06-01T14:29:58;21.83;;;4.07;;
20794;SDS011;28087;-33.874;151.240;2023-06-01T14:32:35;18.67;;;4.00;;
20794;SDS011;28087;-33.874;151.240;2023-06-01T14:35:10;19.75;;;4.05;;
20794;SDS011;28087;-33.874;151.240;2023-06-01T14:37:48;16.58;;;3.58;;
20794;SDS011;28087;-33.874;151.240;2023-06-01T14:40:22;23.88;;;5.32;;
20794;SDS011;28087;-33.874;151.240;2023-06-01T14:42:58;24.08;;;5.38;;
20794;SDS011;28087;-33.874;151.240;2023-06-01T14:45:36;26.08;;;4.72;;
20794;SDS011;28087;-33.874;151.240;2023-06-01T14:48:11;17.63;;;3.80;;
20794;SDS011;28087;-33.874;151.240;2023-06-01T14:50:46;22.63;;;4.38;;
20794;SDS011;28087;-33.874;151.240;2023-06-01T14:53:22;22.52;;;3.90;;
20794;SDS011;28087;-33.874;151.240;2023-06-01T14:55:58;15.93;;;3.40;;
20794;SDS011;28087;-33.874;151.240;2023-06-01T14:58:34;20.23;;;4.18;;
20794;SDS011;28087;-33.874;151.240;2023-06-01T15:01:14;18.90;;;3.92;;
20794;SDS011;28087;-33.874;151.240;2023-06-01T15:03:52;18.55;;;3.90;;
20794;SDS011;28087;-33.874;151.240;2023-06-01T15:06:28;22.48;;;4.18;;
20794;SDS011;28087;-33.874;151.240;2023-06-01T15:09:03;28.70;;;4.65;;
20794;SDS011;28087;-33.874;151.240;2023-06-01T15:11:38;22.73;;;4.47;;
20794;SDS011;28087;-33.874;151.240;2023-06-01T15:14:14;19.20;;;3.78;;
20794;SDS011;28087;-33.874;151.240;2023-06-01T15:16:52;15.90;;;3.60;;
20794;SDS011;28087;-33.874;151.240;2023-06-01T15:19:27;19.35;;;3.75;;
20794;SDS011;28087;-33.874;151.240;2023-06-01T15:22:02;20.80;;;4.25;;